createdAt,value
2018-09-10T00:01:44.265Z,3.37
2018-09-10T00:04:12.699Z,2.80
2018-09-10T00:06:40.927Z,2.77
2018-09-10T00:09:10.210Z,2.87
2018-09-10T00:11:38.777Z,2.30
2018-09-10T00:14:06.884Z,2.40
2018-09-10T00:16:35.042Z,2.53
2018-09-10T00:19:04.946Z,2.70
2018-09-10T00:21:33.126Z,2.70
2018-09-10T00:24:01.217Z,2.70
2018-09-10T00:26:29.291Z,2.27
2018-09-10T00:28:57.414Z,2.50
2018-09-10T00:31:25.496Z,2.27
2018-09-10T00:33:53.559Z,2.30
2018-09-10T00:36:21.631Z,2.40
2018-09-10T00:38:49.736Z,2.27
2018-09-10T00:41:18.020Z,2.20
2018-09-10T00:43:46.087Z,2.30
2018-09-10T00:46:14.194Z,2.10
2018-09-10T00:48:42.272Z,1.90
2018-09-10T00:51:10.351Z,1.80
2018-09-10T00:53:38.415Z,2.03
2018-09-10T00:56:06.515Z,1.90
2018-09-10T00:58:34.648Z,1.80
2018-09-10T01:01:02.735Z,1.80
2018-09-10T01:03:30.817Z,1.97
2018-09-10T01:05:58.885Z,1.90
2018-09-10T01:08:26.967Z,1.80
2018-09-10T01:10:55.055Z,1.90
2018-09-10T01:13:23.146Z,1.70
2018-09-10T01:15:51.231Z,1.60
2018-09-10T01:18:19.331Z,1.90
2018-09-10T01:20:47.427Z,2.13
2018-09-10T01:23:15.511Z,1.57
2018-09-10T01:25:43.622Z,1.53
2018-09-10T01:28:11.729Z,1.60
2018-09-10T01:30:39.798Z,1.90
2018-09-10T01:33:12.145Z,1.63
2018-09-10T01:35:40.222Z,1.87
2018-09-10T01:38:08.353Z,1.43
2018-09-10T01:40:36.469Z,1.63
2018-09-10T01:43:04.555Z,1.70
2018-09-10T01:45:32.716Z,1.90
2018-09-10T01:48:00.812Z,1.63
2018-09-10T01:50:28.880Z,1.57
2018-09-10T01:52:56.967Z,1.37
2018-09-10T01:55:25.043Z,1.60
2018-09-10T01:57:53.138Z,1.60
2018-09-10T02:00:21.214Z,1.63
2018-09-10T02:02:49.304Z,1.70
2018-09-10T02:05:17.387Z,1.73
2018-09-10T02:07:45.493Z,1.40
2018-09-10T02:10:13.867Z,1.80
2018-09-10T02:12:41.936Z,1.30
2018-09-10T02:15:10.007Z,1.30
2018-09-10T02:17:38.131Z,1.50
2018-09-10T02:20:06.228Z,1.60
2018-09-10T02:22:34.343Z,1.40
2018-09-10T02:25:02.434Z,1.47
2018-09-10T02:27:30.575Z,1.47
2018-09-10T02:29:58.625Z,1.40
2018-09-10T02:32:26.707Z,1.53
2018-09-10T02:34:54.816Z,1.80
2018-09-10T02:37:22.897Z,1.63
2018-09-10T02:39:51.006Z,1.40
2018-09-10T02:42:19.100Z,1.43
2018-09-10T02:44:47.223Z,1.70
2018-09-10T02:47:15.310Z,1.57
2018-09-10T02:49:43.400Z,1.50
2018-09-10T02:52:11.482Z,1.30
2018-09-10T02:54:39.590Z,1.53
2018-09-10T02:57:07.662Z,1.50
2018-09-10T02:59:35.754Z,1.53
2018-09-10T03:02:03.845Z,1.40
2018-09-10T03:04:31.919Z,1.30
2018-09-10T03:07:00.161Z,1.40
2018-09-10T03:09:28.246Z,1.50
2018-09-10T03:11:56.335Z,1.43
2018-09-10T03:14:24.475Z,1.70
2018-09-10T03:16:52.566Z,1.90
2018-09-10T03:19:20.687Z,1.37
2018-09-10T03:21:48.806Z,1.67
2018-09-10T03:24:16.903Z,1.50
2018-09-10T03:26:44.986Z,1.50
2018-09-10T03:29:13.112Z,1.67
2018-09-10T03:31:41.210Z,1.53
2018-09-10T03:34:09.298Z,1.63
2018-09-10T03:36:37.387Z,1.60
2018-09-10T03:39:07.316Z,1.50
2018-09-10T03:41:35.400Z,1.40
2018-09-10T03:44:03.490Z,1.37
2018-09-10T03:46:31.794Z,1.50
2018-09-10T03:48:59.870Z,1.30
2018-09-10T03:51:27.967Z,1.30
2018-09-10T03:53:56.084Z,1.47
2018-09-10T03:56:24.162Z,1.33
2018-09-10T03:58:52.235Z,1.40
2018-09-10T04:01:20.320Z,1.50
2018-09-10T04:03:48.408Z,1.50
2018-09-10T04:06:16.491Z,1.20
2018-09-10T04:08:44.555Z,1.47
2018-09-10T04:11:13.075Z,1.40
2018-09-10T04:13:41.165Z,1.50
2018-09-10T04:16:09.240Z,1.43
2018-09-10T04:18:38.062Z,1.63
2018-09-10T04:21:06.161Z,1.57
2018-09-10T04:23:34.236Z,1.30
2018-09-10T04:26:02.358Z,1.40
2018-09-10T04:28:30.411Z,1.50
2018-09-10T04:30:58.532Z,1.50
2018-09-10T04:33:26.904Z,1.80
2018-09-10T04:35:55.006Z,1.60
2018-09-10T04:38:23.074Z,1.40
2018-09-10T04:40:51.164Z,1.43
2018-09-10T04:43:19.251Z,1.37
2018-09-10T04:45:47.342Z,1.67
2018-09-10T04:48:15.424Z,1.23
2018-09-10T04:50:43.507Z,1.67
2018-09-10T04:53:11.620Z,1.70
2018-09-10T04:55:39.719Z,1.37
2018-09-10T04:58:07.856Z,1.50
2018-09-10T05:00:35.870Z,1.60
2018-09-10T05:03:03.964Z,1.50
2018-09-10T05:05:32.056Z,1.57
2018-09-10T05:08:00.144Z,1.57
2018-09-10T05:10:28.238Z,1.43
2018-09-10T05:12:56.349Z,1.40
2018-09-10T05:15:24.434Z,1.50
2018-09-10T05:17:52.543Z,1.73
2018-09-10T05:20:20.817Z,1.50
2018-09-10T05:22:48.909Z,1.40
2018-09-10T05:25:17.000Z,1.50
2018-09-10T05:27:45.760Z,1.50
2018-09-10T05:30:13.892Z,1.50
2018-09-10T05:32:42.069Z,1.53
2018-09-10T05:35:10.219Z,1.40
2018-09-10T05:37:38.592Z,1.70
2018-09-10T05:40:09.833Z,1.33
2018-09-10T05:42:38.171Z,1.60
2018-09-10T05:45:08.216Z,1.60
2018-09-10T05:47:36.388Z,1.83
2018-09-10T05:50:06.111Z,1.47
2018-09-10T05:52:35.745Z,1.13
2018-09-10T05:55:03.855Z,1.40
2018-09-10T05:57:32.843Z,1.30
2018-09-10T06:00:02.235Z,1.60
2018-09-10T06:02:30.319Z,1.50
2018-09-10T06:04:58.559Z,1.40
2018-09-10T06:07:26.653Z,1.20
2018-09-10T06:09:54.744Z,1.60
2018-09-10T06:12:22.913Z,1.47
2018-09-10T06:14:50.978Z,1.50
2018-09-10T06:17:19.703Z,1.50
2018-09-10T06:19:49.927Z,1.30
2018-09-10T06:22:18.047Z,1.53
2018-09-10T06:24:46.147Z,1.47
2018-09-10T06:27:14.253Z,1.70
2018-09-10T06:29:43.360Z,1.70
2018-09-10T06:32:12.748Z,1.67
2018-09-10T06:34:41.725Z,1.33
2018-09-10T06:37:09.837Z,1.53
2018-09-10T06:39:37.918Z,1.60
2018-09-10T06:42:06.185Z,1.53
2018-09-10T06:44:34.490Z,1.50
2018-09-10T06:47:02.598Z,1.53
2018-09-10T06:49:30.927Z,1.80
2018-09-10T06:51:59.695Z,1.60
2018-09-10T06:54:27.795Z,1.67
2018-09-10T06:56:55.869Z,1.70
2018-09-10T06:59:23.960Z,1.20
2018-09-10T07:01:52.043Z,1.30
2018-09-10T07:04:20.740Z,1.90
2018-09-10T07:06:48.835Z,1.90
2018-09-10T07:09:16.944Z,2.07
2018-09-10T07:11:45.139Z,1.80
2018-09-10T07:14:13.258Z,1.53
2018-09-10T07:16:43.695Z,1.63
2018-09-10T07:19:13.002Z,1.63
2018-09-10T07:21:41.461Z,1.57
2018-09-10T07:24:09.567Z,1.77
2018-09-10T07:26:37.655Z,1.70
2018-09-10T07:29:07.884Z,1.40
2018-09-10T07:31:37.159Z,1.80
2018-09-10T07:34:06.895Z,2.50
2018-09-10T07:36:35.037Z,2.23
2018-09-10T07:39:03.189Z,1.80
2018-09-10T07:41:31.267Z,1.50
2018-09-10T07:43:59.623Z,1.63
2018-09-10T07:46:27.655Z,1.33
2018-09-10T07:48:55.804Z,1.70
2018-09-10T07:51:26.100Z,1.30
2018-09-10T07:53:54.215Z,1.50
2018-09-10T07:56:23.845Z,1.90
2018-09-10T07:58:52.163Z,1.47
2018-09-10T08:01:21.026Z,1.40
2018-09-10T08:03:49.146Z,1.90
2018-09-10T08:06:17.295Z,1.60
2018-09-10T08:08:45.392Z,1.57
2018-09-10T08:11:14.506Z,1.47
2018-09-10T08:13:43.372Z,1.60
2018-09-10T08:16:11.630Z,1.83
2018-09-10T08:18:39.717Z,2.10
2018-09-10T08:21:07.828Z,1.70
2018-09-10T08:23:36.100Z,1.80
2018-09-10T08:26:04.567Z,2.17
2018-09-10T08:28:34.953Z,1.73
2018-09-10T08:31:03.231Z,2.37
2018-09-10T08:33:31.585Z,1.80
2018-09-10T08:35:59.745Z,1.50
2018-09-10T08:38:27.835Z,1.93
2018-09-10T08:40:55.959Z,1.90
2018-09-10T08:43:24.050Z,2.00
2018-09-10T08:45:52.598Z,1.90
2018-09-10T08:48:22.771Z,1.93
2018-09-10T08:50:51.571Z,2.77
2018-09-10T08:53:19.687Z,2.03
2018-09-10T08:55:48.193Z,2.13
2018-09-10T08:58:16.283Z,2.40
2018-09-10T09:00:44.609Z,2.97
2018-09-10T09:03:12.789Z,2.93
2018-09-10T09:05:40.926Z,3.20
2018-09-10T09:08:09.143Z,3.57
2018-09-10T09:10:37.310Z,3.50
2018-09-10T09:13:06.967Z,4.53
2018-09-10T09:15:35.360Z,3.20
2018-09-10T09:18:04.359Z,2.97
2018-09-10T09:20:32.714Z,3.10
2018-09-10T09:23:01.249Z,3.30
2018-09-10T09:25:29.404Z,3.00
2018-09-10T09:27:58.726Z,3.40
2018-09-10T09:30:27.888Z,3.20
2018-09-10T09:32:57.952Z,3.50
2018-09-10T09:35:32.604Z,3.30
2018-09-10T09:38:07.965Z,3.03
2018-09-10T09:40:41.395Z,2.80
2018-09-10T09:43:15.024Z,3.57
2018-09-10T09:45:52.062Z,3.90
2018-09-10T09:48:20.787Z,3.80
2018-09-10T09:50:48.949Z,3.13
2018-09-10T09:53:17.465Z,4.23
2018-09-10T09:55:45.695Z,4.17
2018-09-10T09:58:13.847Z,3.87
2018-09-10T10:00:47.314Z,4.67
2018-09-10T10:03:19.088Z,4.23
2018-09-10T10:05:47.230Z,4.27
2018-09-10T10:08:15.837Z,3.37
2018-09-10T10:10:43.924Z,3.80
2018-09-10T10:13:12.285Z,4.10
2018-09-10T10:15:40.483Z,3.80
2018-09-10T10:18:08.897Z,4.50
2018-09-10T10:20:37.020Z,4.20
2018-09-10T10:23:05.156Z,4.50
2018-09-10T10:25:33.422Z,4.13
2018-09-10T10:28:01.630Z,4.60
2018-09-10T10:30:30.746Z,4.27
2018-09-10T10:32:59.050Z,4.07
2018-09-10T10:35:27.186Z,5.40
2018-09-10T10:37:55.301Z,5.20
2018-09-10T10:40:23.401Z,6.37
2018-09-10T10:42:51.687Z,4.50
2018-09-10T10:45:19.935Z,4.30
2018-09-10T10:47:48.807Z,4.70
2018-09-10T10:50:17.477Z,3.70
2018-09-10T10:52:45.596Z,3.50
2018-09-10T10:55:13.793Z,3.77
2018-09-10T10:57:42.138Z,3.73
2018-09-10T11:00:10.240Z,3.47
2018-09-10T11:02:38.467Z,3.10
2018-09-10T11:05:06.872Z,3.30
2018-09-10T11:07:34.999Z,2.60
2018-09-10T11:10:03.199Z,3.40
2018-09-10T11:12:31.312Z,2.63
2018-09-10T11:14:59.406Z,2.87
2018-09-10T11:17:27.521Z,3.00
2018-09-10T11:19:55.674Z,2.90
2018-09-10T11:22:23.863Z,3.37
2018-09-10T11:24:52.071Z,3.10
2018-09-10T11:27:20.211Z,2.83
2018-09-10T11:29:48.575Z,2.93
2018-09-10T11:32:16.777Z,2.70
2018-09-10T11:34:45.459Z,2.50
2018-09-10T11:37:13.613Z,2.73
2018-09-10T11:39:41.789Z,2.20
2018-09-10T11:42:09.912Z,2.60
2018-09-10T11:44:38.053Z,3.17
2018-09-10T11:47:06.211Z,2.40
2018-09-10T11:49:34.335Z,2.70
2018-09-10T11:52:02.798Z,2.60
2018-09-10T11:54:30.946Z,2.63
2018-09-10T11:56:59.051Z,2.70
2018-09-10T11:59:27.227Z,2.77
2018-09-10T12:01:55.389Z,2.40
2018-09-10T12:04:23.469Z,2.50
2018-09-10T12:06:51.882Z,2.53
2018-09-10T12:09:20.002Z,2.70
2018-09-10T12:11:48.172Z,2.20
2018-09-10T12:14:16.286Z,2.30
2018-09-10T12:16:44.473Z,2.60
2018-09-10T12:19:12.544Z,2.43
2018-09-10T12:21:40.725Z,2.30
2018-09-10T12:24:08.771Z,2.20
2018-09-10T12:26:36.935Z,2.87
2018-09-10T12:29:06.463Z,2.37
2018-09-10T12:31:34.559Z,2.60
2018-09-10T12:34:02.667Z,2.60
2018-09-10T12:36:32.071Z,2.27
2018-09-10T12:39:00.187Z,2.57
2018-09-10T12:41:31.558Z,2.30
2018-09-10T12:44:00.031Z,3.00
2018-09-10T12:46:28.208Z,2.23
2018-09-10T12:48:56.276Z,2.90
2018-09-10T12:51:24.387Z,2.83
2018-09-10T12:53:52.496Z,2.87
2018-09-10T12:56:20.575Z,3.07
2018-09-10T12:58:48.895Z,2.43
2018-09-10T13:01:17.047Z,2.60
2018-09-10T13:03:45.196Z,2.43
2018-09-10T13:06:13.289Z,2.83
2018-09-10T13:08:41.395Z,2.70
2018-09-10T13:11:10.969Z,2.00
2018-09-10T13:13:39.063Z,2.40
2018-09-10T13:16:07.240Z,2.40
2018-09-10T13:18:35.387Z,2.73
2018-09-10T13:21:03.530Z,2.47
2018-09-10T13:23:31.764Z,3.10
2018-09-10T13:25:59.998Z,2.30
2018-09-10T13:28:28.136Z,2.20
2018-09-10T13:30:56.252Z,2.60
2018-09-10T13:33:24.361Z,2.83
2018-09-10T13:35:52.670Z,2.83
2018-09-10T13:38:20.934Z,2.30
2018-09-10T13:40:49.943Z,2.30
2018-09-10T13:43:18.197Z,2.43
2018-09-10T13:45:46.304Z,2.30
2018-09-10T13:48:16.989Z,2.53
2018-09-10T13:50:45.132Z,2.73
2018-09-10T13:53:13.296Z,2.37
2018-09-10T13:55:41.485Z,2.83
2018-09-10T13:58:09.902Z,2.67
2018-09-10T14:00:38.075Z,2.77
2018-09-10T14:03:06.263Z,2.30
2018-09-10T14:05:34.411Z,2.60
2018-09-10T14:08:02.519Z,2.20
2018-09-10T14:10:30.694Z,2.87
2018-09-10T14:12:58.860Z,2.57
2018-09-10T14:15:27.269Z,2.10
2018-09-10T14:17:55.568Z,2.60
2018-09-10T14:20:23.756Z,2.20
2018-09-10T14:22:52.136Z,2.10
2018-09-10T14:25:20.271Z,1.83
2018-09-10T14:27:48.519Z,2.10
2018-09-10T14:30:16.720Z,2.57
2018-09-10T14:32:44.883Z,2.03
2018-09-10T14:35:13.087Z,2.00
2018-09-10T14:37:41.252Z,2.23
2018-09-10T14:40:09.636Z,2.10
2018-09-10T14:42:37.775Z,2.10
2018-09-10T14:45:05.999Z,2.20
2018-09-10T14:47:34.258Z,2.23
2018-09-10T14:50:02.354Z,2.33
2018-09-10T14:52:31.214Z,2.30
2018-09-10T14:54:59.320Z,2.67
2018-09-10T14:57:27.458Z,1.97
2018-09-10T14:59:55.568Z,2.13
2018-09-10T15:02:23.985Z,1.90
2018-09-10T15:04:52.076Z,2.20
2018-09-10T15:07:20.246Z,1.93
2018-09-10T15:09:49.740Z,1.87
2018-09-10T15:12:17.852Z,1.77
2018-09-10T15:14:45.955Z,2.10
2018-09-10T15:17:14.040Z,2.03
2018-09-10T15:19:42.119Z,2.40
2018-09-10T15:22:10.215Z,2.47
2018-09-10T15:24:38.328Z,1.97
2018-09-10T15:27:06.438Z,2.27
2018-09-10T15:29:34.554Z,1.80
2018-09-10T15:32:02.803Z,2.07
2018-09-10T15:34:30.935Z,2.27
2018-09-10T15:36:59.023Z,1.97
2018-09-10T15:39:27.159Z,1.70
2018-09-10T15:41:55.314Z,1.97
2018-09-10T15:44:23.489Z,2.40
2018-09-10T15:46:51.660Z,2.00
2018-09-10T15:49:20.054Z,2.37
2018-09-10T15:51:48.260Z,1.70
2018-09-10T15:54:16.385Z,2.90
2018-09-10T15:56:44.656Z,2.00
2018-09-10T15:59:12.855Z,2.77
2018-09-10T16:01:41.002Z,2.40
2018-09-10T16:04:09.124Z,2.23
2018-09-10T16:06:37.524Z,2.77
2018-09-10T16:09:07.143Z,2.93
2018-09-10T16:11:35.404Z,1.93
2018-09-10T16:14:03.502Z,2.20
2018-09-10T16:16:31.799Z,2.57
2018-09-10T16:18:59.922Z,2.50
2018-09-10T16:21:28.060Z,2.70
2018-09-10T16:23:56.289Z,2.87
2018-09-10T16:26:24.405Z,2.23
2018-09-10T16:28:52.519Z,2.87
2018-09-10T16:31:20.702Z,2.70
2018-09-10T16:33:48.828Z,3.10
2018-09-10T16:36:16.938Z,2.43
2018-09-10T16:38:45.447Z,2.47
2018-09-10T16:41:13.824Z,2.40
2018-09-10T16:43:41.906Z,2.97
2018-09-10T16:46:10.018Z,2.40
2018-09-10T16:48:38.210Z,2.60
2018-09-10T16:51:06.342Z,2.57
2018-09-10T16:53:34.483Z,3.37
2018-09-10T16:56:02.819Z,2.40
2018-09-10T16:58:30.959Z,2.27
2018-09-10T17:00:59.107Z,2.33
2018-09-10T17:03:27.241Z,2.57
2018-09-10T17:05:55.352Z,2.90
2018-09-10T17:08:23.448Z,3.00
2018-09-10T17:10:51.536Z,2.23
2018-09-10T17:13:19.663Z,2.57
2018-09-10T17:15:47.860Z,2.77
2018-09-10T17:18:15.959Z,2.40
2018-09-10T17:20:44.072Z,3.03
2018-09-10T17:23:13.829Z,2.80
2018-09-10T17:25:41.922Z,3.13
2018-09-10T17:28:10.035Z,2.73
2018-09-10T17:30:38.125Z,2.87
2018-09-10T17:33:06.341Z,2.40
2018-09-10T17:35:34.507Z,2.90
2018-09-10T17:38:02.594Z,3.00
2018-09-10T17:40:30.700Z,2.60
2018-09-10T17:42:58.781Z,2.20
2018-09-10T17:45:26.895Z,2.67
2018-09-10T17:47:54.971Z,2.40
2018-09-10T17:50:23.199Z,2.90
2018-09-10T17:52:51.301Z,2.20
2018-09-10T17:55:19.412Z,2.20
2018-09-10T17:57:47.559Z,2.30
2018-09-10T18:00:15.678Z,2.70
2018-09-10T18:02:43.769Z,2.23
2018-09-10T18:05:11.855Z,2.67
2018-09-10T18:07:39.962Z,2.27
2018-09-10T18:10:08.070Z,2.17
2018-09-10T18:12:36.194Z,2.40
2018-09-10T18:15:04.615Z,2.67
2018-09-10T18:17:32.708Z,2.27
2018-09-10T18:20:00.823Z,2.10
2018-09-10T18:22:28.915Z,2.60
2018-09-10T18:24:57.737Z,2.03
2018-09-10T18:27:25.822Z,2.40
2018-09-10T18:29:54.166Z,2.43
2018-09-10T18:32:22.291Z,2.37
2018-09-10T18:34:50.408Z,1.80
2018-09-10T18:37:18.551Z,2.20
2018-09-10T18:39:46.755Z,2.10
2018-09-10T18:42:14.863Z,2.10
2018-09-10T18:44:42.963Z,2.67
2018-09-10T18:47:11.218Z,1.90
2018-09-10T18:49:39.343Z,2.33
2018-09-10T18:52:07.536Z,2.10
2018-09-10T18:54:35.706Z,2.33
2018-09-10T18:57:03.871Z,1.70
2018-09-10T18:59:32.074Z,2.03
2018-09-10T19:02:00.247Z,2.03
2018-09-10T19:04:28.372Z,2.00
2018-09-10T19:06:56.508Z,2.07
2018-09-10T19:09:24.687Z,2.00
2018-09-10T19:11:52.888Z,1.93
2018-09-10T19:14:21.188Z,1.97
2018-09-10T19:16:49.387Z,1.97
2018-09-10T19:19:17.519Z,1.67
2018-09-10T19:21:45.804Z,2.07
2018-09-10T19:24:13.927Z,1.70
2018-09-10T19:26:42.072Z,2.20
2018-09-10T19:29:10.225Z,1.70
2018-09-10T19:31:38.424Z,1.97
2018-09-10T19:34:06.615Z,1.90
2018-09-10T19:36:34.763Z,1.77
2018-09-10T19:39:04.097Z,1.47
2018-09-10T19:41:32.247Z,1.90
2018-09-10T19:44:00.428Z,2.40
2018-09-10T19:46:28.572Z,1.80
2018-09-10T19:48:56.673Z,1.87
2018-09-10T19:51:24.870Z,2.03
2018-09-10T19:53:52.979Z,1.80
2018-09-10T19:56:21.066Z,1.90
2018-09-10T19:58:49.174Z,2.33
2018-09-10T20:01:18.302Z,1.73
2018-09-10T20:03:46.479Z,2.17
2018-09-10T20:06:14.681Z,2.27
2018-09-10T20:08:42.827Z,2.07
2018-09-10T20:11:11.084Z,1.70
2018-09-10T20:13:39.426Z,2.07
2018-09-10T20:16:07.540Z,1.70
2018-09-10T20:18:35.872Z,1.93
2018-09-10T20:21:04.654Z,1.47
2018-09-10T20:23:32.857Z,1.90
2018-09-10T20:26:00.971Z,1.70
2018-09-10T20:28:29.231Z,1.77
2018-09-10T20:30:57.370Z,1.87
2018-09-10T20:33:26.363Z,2.47
2018-09-10T20:35:54.498Z,1.90
2018-09-10T20:38:22.991Z,2.07
2018-09-10T20:40:51.163Z,2.00
2018-09-10T20:43:19.268Z,1.90
2018-09-10T20:45:48.328Z,1.87
2018-09-10T20:48:17.322Z,2.00
2018-09-10T20:50:45.456Z,1.87
2018-09-10T20:53:15.936Z,2.00
2018-09-10T20:55:44.052Z,2.00
2018-09-10T20:58:12.178Z,1.80
2018-09-10T21:00:40.275Z,1.97
2018-09-10T21:03:08.954Z,2.10
2018-09-10T21:05:37.251Z,1.80
2018-09-10T21:08:05.372Z,2.13
2018-09-10T21:10:33.575Z,1.90
2018-09-10T21:13:01.774Z,2.10
2018-09-10T21:15:29.911Z,2.23
2018-09-10T21:17:58.047Z,1.70
2018-09-10T21:20:26.182Z,2.13
2018-09-10T21:22:54.314Z,2.10
2018-09-10T21:25:22.399Z,1.70
2018-09-10T21:27:50.668Z,2.33
2018-09-10T21:30:18.739Z,2.40
2018-09-10T21:32:46.847Z,2.20
2018-09-10T21:35:15.118Z,2.13
2018-09-10T21:37:43.235Z,2.03
2018-09-10T21:40:11.411Z,1.80
2018-09-10T21:42:39.503Z,2.00
2018-09-10T21:45:07.587Z,1.80
2018-09-10T21:47:35.795Z,1.90
2018-09-10T21:50:03.875Z,2.27
2018-09-10T21:52:32.023Z,1.57
2018-09-10T21:55:00.329Z,2.13
2018-09-10T21:57:28.446Z,2.40
2018-09-10T21:59:56.544Z,1.97
2018-09-10T22:02:24.633Z,2.03
2018-09-10T22:04:52.966Z,1.60
2018-09-10T22:07:21.062Z,2.23
2018-09-10T22:09:49.184Z,1.60
2018-09-10T22:12:17.276Z,1.50
2018-09-10T22:14:45.387Z,2.07
2018-09-10T22:17:13.530Z,1.80
2018-09-10T22:19:41.714Z,1.90
2018-09-10T22:22:09.845Z,1.87
2018-09-10T22:24:38.025Z,1.80
2018-09-10T22:27:06.117Z,2.03
2018-09-10T22:29:34.276Z,1.60
2018-09-10T22:32:02.471Z,1.83
2018-09-10T22:34:30.604Z,1.70
2018-09-10T22:36:58.717Z,1.80
2018-09-10T22:39:26.847Z,2.10
2018-09-10T22:41:55.016Z,1.63
2018-09-10T22:44:23.169Z,1.30
2018-09-10T22:46:51.455Z,1.70
2018-09-10T22:49:19.713Z,1.70
2018-09-10T22:51:48.642Z,1.80
2018-09-10T22:54:16.739Z,1.70
2018-09-10T22:56:44.830Z,2.10
2018-09-10T22:59:12.960Z,1.83
2018-09-10T23:01:41.066Z,1.87
2018-09-10T23:04:09.450Z,1.67
2018-09-10T23:06:37.578Z,1.50
2018-09-10T23:09:07.076Z,1.57
2018-09-10T23:11:35.188Z,1.80
2018-09-10T23:14:03.267Z,2.00
2018-09-10T23:16:31.454Z,1.63
2018-09-10T23:18:59.509Z,1.60
2018-09-10T23:21:27.634Z,2.03
2018-09-10T23:23:55.756Z,2.00
2018-09-10T23:26:23.848Z,1.57
2018-09-10T23:28:52.045Z,1.80
2018-09-10T23:31:20.205Z,1.50
2018-09-10T23:33:48.287Z,1.53
2018-09-10T23:36:16.463Z,1.80
2018-09-10T23:38:44.611Z,2.07
2018-09-10T23:41:12.711Z,1.53
2018-09-10T23:43:40.836Z,1.93
2018-09-10T23:46:09.008Z,1.50
2018-09-10T23:48:37.156Z,1.80
2018-09-10T23:51:05.260Z,1.77
2018-09-10T23:53:33.350Z,2.03
2018-09-10T23:56:01.453Z,1.50
2018-09-10T23:58:29.660Z,1.33
